Flight Track Log - Related Links

Times and Time Zones

All times are in EDT time to prevent confusion due to time zone crossing. See the N777NC flight status page for this flight to view local times or setup timezone preferences in your user account.

Time Position Orientation Groundspeed Altitude Reporting Facility
EDT Latitude Longitude Course Direction KTS MPH feet Rate Location/Type
Tue 10:59:40 AM 33.6519 -84.3756 292° West 414 476 2,800  Level Atlanta Center
Tue 11:00:40 AM 33.6833 -84.2958 65° Northeast 325 374 5,000 2,350 Climbing Atlanta Center
Tue 11:01:40 AM 33.7628 -84.2836 North 262 302 7,500 2,700 Climbing Atlanta Center
Tue 11:02:00 AM 33.6837 -84.8858 280° West  Level FlightAware Approximate
Tue 11:02:40 AM 33.8064 -84.3514 308° West 243 280 10,400  Level Atlanta Center
Tue 11:03:00 AM 33.7004 -85.0023 280° West  Level FlightAware Approximate
Tue 11:03:40 AM 33.8081 -84.4464 271° West 265 305 11,500  Level Atlanta Center
Tue 11:04:00 AM 33.7174 -85.1188 292° West  Level FlightAware Approximate
Tue 11:04:40 AM 33.8078 -84.5714 270° West 333 383 14,700  Level Atlanta Center
Tue 11:05:40 AM 33.8031 -84.6764 267° West 333 383 16,200 2,000 Climbing Atlanta Center
Tue 11:06:40 AM 33.8003 -84.7936 268° West 345 397 18,700 2,150 Climbing Atlanta Center
Tue 11:07:40 AM 33.7994 -84.9336 270° West 364 419 20,500 1,800 Climbing Atlanta Center
Tue 11:08:40 AM 33.8025 -85.0589 272° West 374 430 22,300 1,250 Climbing Atlanta Center
Tue 11:09:40 AM 33.8014 -85.1914 269° West 387 445 23,000 350 Climbing Atlanta Center
Tue 11:10:40 AM 33.8000 -85.3261 269° West 404 465 23,000  Level Atlanta Center
Tue 11:11:40 AM 33.8028 -85.4564 272° West 421 484 23,000  Level Atlanta Center
Tue 11:12:40 AM 33.8114 -85.6089 274° West 421 484 23,000  Level Atlanta Center
Tue 11:13:40 AM 33.8453 -85.7269 289° West 421 484 23,000  Level Atlanta Center
Tue 11:14:40 AM 33.8833 -85.8506 290° West 415 478 23,000  Level Atlanta Center
Tue 11:15:40 AM 33.9231 -85.9814 290° West 410 472 23,000 -200 Level Atlanta Center
Tue 11:16:40 AM 33.9583 -86.1125 288° West 410 472 22,600 -950 Descending Atlanta Center
Tue 11:17:40 AM 34.0147 -86.2342 299° West 410 472 21,100 -1,735 Descending Atlanta Center
Tue 11:19:26 AM 34.2019 -86.3542 332° Northwest 411 473 17,800 -1,843 Descending Memphis Center
Tue 11:20:26 AM 34.3125 -86.4194 334° Northwest 421 484 16,000 -1,850 Descending Memphis Center
Tue 11:21:26 AM 34.4200 -86.4472 348° North 412 474 14,100 -1,900 Descending Memphis Center
Tue 11:22:26 AM 34.5167 -86.4731 348° North 389 448 12,200 -2,033 Descending Memphis Center
Tue 11:23:27 AM 34.6031 -86.5017 345° North 351 404 10,000 -2,250 Descending Memphis Center
Tue 11:24:26 AM 34.6831 -86.5258 346° North 317 365 7,700 -2,218 Descending Memphis Center
Tue 11:25:26 AM 34.7608 -86.5450 349° North 292 336 5,600 -1,800 Descending Memphis Center
Tue 11:26:26 AM 34.8206 -86.5856 331° Northwest 277 319 4,100 -750 Descending Memphis Center
Tue 11:27:26 AM 34.8375 -86.6581 286° West 221 254 4,100 -50 Level Memphis Center
Tue 11:28:26 AM 34.8417 -86.7311 274° West 214 246 4,000 -450 Descending Memphis Center
Tue 11:29:26 AM 34.7906 -86.7639 208° Southwest 176 203 3,200 -800 Descending Memphis Center

Login

Don't have an account? Register now (free) for customized features, flight alerts, and more!